sensor_id;sensor_type;location;lat;lon;timestamp;P1;P2;P0
69849;PMS5003;57144;39.652;-75.770;2022-09-09T05:45:11;3;3;
69849;PMS5003;57144;39.652;-75.770;2022-09-09T05:47:41;3;3;
69849;PMS5003;57144;39.652;-75.770;2022-09-09T05:50:12;2;2;
69849;PMS5003;57144;39.652;-75.770;2022-09-09T05:52:42;2;2;
69849;PMS5003;57144;39.652;-75.770;2022-09-09T05:55:13;3;3;
69849;PMS5003;57144;39.652;-75.770;2022-09-09T05:57:48;5;4;
69849;PMS5003;57144;39.652;-75.770;2022-09-09T06:00:14;4;4;
69849;PMS5003;57144;39.652;-75.770;2022-09-09T06:05:15;4;4;
69849;PMS5003;57144;39.652;-75.770;2022-09-09T06:07:46;4;4;
69849;PMS5003;57144;39.652;-75.770;2022-09-09T06:10:17;4;4;
69849;PMS5003;57144;39.652;-75.770;2022-09-09T06:12:47;4;2;
69849;PMS5003;57144;39.652;-75.770;2022-09-09T06:15:18;3;3;
69849;PMS5003;57144;39.652;-75.770;2022-09-09T06:20:19;4;3;
69849;PMS5003;57144;39.652;-75.770;2022-09-09T06:22:50;4;3;
69849;PMS5003;57144;39.652;-75.770;2022-09-09T06:25:20;5;5;
69849;PMS5003;57144;39.652;-75.770;2022-09-09T06:27:51;2;2;
69849;PMS5003;57144;39.652;-75.770;2022-09-09T06:30:21;4;4;
69849;PMS5003;57144;39.652;-75.770;2022-09-09T06:32:54;6;5;
69849;PMS5003;57144;39.652;-75.770;2022-09-09T06:35:23;5;5;
69849;PMS5003;57144;39.652;-75.770;2022-09-09T06:37:53;3;2;
69849;PMS5003;57144;39.652;-75.770;2022-09-09T06:40:24;6;6;
69849;PMS5003;57144;39.652;-75.770;2022-09-09T06:42:54;8;7;
69849;PMS5003;57144;39.652;-75.770;2022-09-09T06:45:25;3;3;
69849;PMS5003;57144;39.652;-75.770;2022-09-09T06:47:55;5;5;
69849;PMS5003;57144;39.652;-75.770;2022-09-09T06:50:26;7;6;
69849;PMS5003;57144;39.652;-75.770;2022-09-09T06:52:57;4;4;
69849;PMS5003;57144;39.652;-75.770;2022-09-09T06:55:27;6;6;
69849;PMS5003;57144;39.652;-75.770;2022-09-09T06:57:58;4;4;
69849;PMS5003;57144;39.652;-75.770;2022-09-09T07:00:28;6;6;
69849;PMS5003;57144;39.652;-75.770;2022-09-09T07:02:59;6;5;
69849;PMS5003;57144;39.652;-75.770;2022-09-09T07:05:30;7;6;
69849;PMS5003;57144;39.652;-75.770;2022-09-09T07:08:00;8;8;
69849;PMS5003;57144;39.652;-75.770;2022-09-09T07:10:31;6;5;
69849;PMS5003;57144;39.652;-75.770;2022-09-09T07:13:01;6;5;
69849;PMS5003;57144;39.652;-75.770;2022-09-09T07:15:32;7;7;
69849;PMS5003;57144;39.652;-75.770;2022-09-09T07:18:03;5;4;
69849;PMS5003;57144;39.652;-75.770;2022-09-09T07:20:33;6;4;
69849;PMS5003;57144;39.652;-75.770;2022-09-09T07:23:04;5;5;
69849;PMS5003;57144;39.652;-75.770;2022-09-09T07:25:34;5;4;
69849;PMS5003;57144;39.652;-75.770;2022-09-09T07:28:05;5;5;
69849;PMS5003;57144;39.652;-75.770;2022-09-09T07:30:36;5;4;
69849;PMS5003;57144;39.652;-75.770;2022-09-09T07:33:06;6;6;
69849;PMS5003;57144;39.652;-75.770;2022-09-09T07:35:37;4;4;
69849;PMS5003;57144;39.652;-75.770;2022-09-09T07:38:07;5;4;
69849;PMS5003;57144;39.652;-75.770;2022-09-09T07:40:38;4;4;
69849;PMS5003;57144;39.652;-75.770;2022-09-09T07:43:08;4;3;
69849;PMS5003;57144;39.652;-75.770;2022-09-09T07:45:39;4;4;
69849;PMS5003;57144;39.652;-75.770;2022-09-09T07:48:09;6;5;
69849;PMS5003;57144;39.652;-75.770;2022-09-09T07:50:40;4;4;
69849;PMS5003;57144;39.652;-75.770;2022-09-09T07:53:11;5;4;
69849;PMS5003;57144;39.652;-75.770;2022-09-09T07:55:41;5;5;
69849;PMS5003;57144;39.652;-75.770;2022-09-09T07:58:12;4;4;
69849;PMS5003;57144;39.652;-75.770;2022-09-09T08:00:42;4;4;
69849;PMS5003;57144;39.652;-75.770;2022-09-09T08:03:13;5;4;
69849;PMS5003;57144;39.652;-75.770;2022-09-09T08:08:14;4;4;
69849;PMS5003;57144;39.652;-75.770;2022-09-09T08:10:45;4;4;
69849;PMS5003;57144;39.652;-75.770;2022-09-09T08:13:15;3;2;
69849;PMS5003;57144;39.652;-75.770;2022-09-09T08:15:46;4;3;
69849;PMS5003;57144;39.652;-75.770;2022-09-09T08:18:17;4;3;
69849;PMS5003;57144;39.652;-75.770;2022-09-09T08:20:47;7;5;
69849;PMS5003;57144;39.652;-75.770;2022-09-09T08:23:18;3;3;
69849;PMS5003;57144;39.652;-75.770;2022-09-09T08:25:48;5;5;
69849;PMS5003;57144;39.652;-75.770;2022-09-09T08:28:19;5;5;
69849;PMS5003;57144;39.652;-75.770;2022-09-09T08:30:49;5;5;
69849;PMS5003;57144;39.652;-75.770;2022-09-09T08:33:20;7;6;
69849;PMS5003;57144;39.652;-75.770;2022-09-09T08:35:52;5;5;
69849;PMS5003;57144;39.652;-75.770;2022-09-09T08:38:21;6;6;
69849;PMS5003;57144;39.652;-75.770;2022-09-09T08:40:52;6;6;
69849;PMS5003;57144;39.652;-75.770;2022-09-09T08:43:22;7;7;
69849;PMS5003;57144;39.652;-75.770;2022-09-09T08:45:55;9;9;
69849;PMS5003;57144;39.652;-75.770;2022-09-09T08:48:29;10;10;
69849;PMS5003;57144;39.652;-75.770;2022-09-09T08:50:53;8;8;
69849;PMS5003;57144;39.652;-75.770;2022-09-09T08:53:26;9;9;
69849;PMS5003;57144;39.652;-75.770;2022-09-09T08:55:55;10;9;
69849;PMS5003;57144;39.652;-75.770;2022-09-09T08:58:25;10;9;
69849;PMS5003;57144;39.652;-75.770;2022-09-09T09:01:00;7;6;
69849;PMS5003;57144;39.652;-75.770;2022-09-09T09:03:29;10;9;
69849;PMS5003;57144;39.652;-75.770;2022-09-09T09:05:59;11;11;
69849;PMS5003;57144;39.652;-75.770;2022-09-09T09:08:29;9;9;
69849;PMS5003;57144;39.652;-75.770;2022-09-09T09:10:58;9;8;
69849;PMS5003;57144;39.652;-75.770;2022-09-09T09:13:31;10;10;
69849;PMS5003;57144;39.652;-75.770;2022-09-09T09:16:00;11;10;
69849;PMS5003;57144;39.652;-75.770;2022-09-09T09:18:30;12;11;
69849;PMS5003;57144;39.652;-75.770;2022-09-09T09:21:02;9;9;
69849;PMS5003;57144;39.652;-75.770;2022-09-09T09:23:32;10;9;
69849;PMS5003;57144;39.652;-75.770;2022-09-09T09:26:01;12;11;
69849;PMS5003;57144;39.652;-75.770;2022-09-09T09:28:32;11;10;
69849;PMS5003;57144;39.652;-75.770;2022-09-09T09:31:03;7;7;
69849;PMS5003;57144;39.652;-75.770;2022-09-09T09:33:34;9;8;
69849;PMS5003;57144;39.652;-75.770;2022-09-09T09:36:04;12;9;
69849;PMS5003;57144;39.652;-75.770;2022-09-09T09:38:35;10;10;
69849;PMS5003;57144;39.652;-75.770;2022-09-09T09:41:05;13;11;
69849;PMS5003;57144;39.652;-75.770;2022-09-09T09:43:36;9;9;
69849;PMS5003;57144;39.652;-75.770;2022-09-09T09:48:37;10;9;
69849;PMS5003;57144;39.652;-75.770;2022-09-09T09:51:08;12;10;
69849;PMS5003;57144;39.652;-75.770;2022-09-09T09:53:38;11;10;
69849;PMS5003;57144;39.652;-75.770;2022-09-09T09:56:09;15;13;
69849;PMS5003;57144;39.652;-75.770;2022-09-09T09:58:51;10;10;
69849;PMS5003;57144;39.652;-75.770;2022-09-09T10:03:40;12;11;
69849;PMS5003;57144;39.652;-75.770;2022-09-09T10:06:11;13;13;
69849;PMS5003;57144;39.652;-75.770;2022-09-09T10:08:44;13;13;
69849;PMS5003;57144;39.652;-75.770;2022-09-09T10:11:17;15;14;
69849;PMS5003;57144;39.652;-75.770;2022-09-09T10:13:46;12;11;
69849;PMS5003;57144;39.652;-75.770;2022-09-09T10:16:18;10;9;
69849;PMS5003;57144;39.652;-75.770;2022-09-09T10:18:47;15;13;
69849;PMS5003;57144;39.652;-75.770;2022-09-09T10:21:18;13;13;
69849;PMS5003;57144;39.652;-75.770;2022-09-09T10:23:48;13;12;
69849;PMS5003;57144;39.652;-75.770;2022-09-09T10:26:19;17;14;
69849;PMS5003;57144;39.652;-75.770;2022-09-09T10:28:51;18;16;
69849;PMS5003;57144;39.652;-75.770;2022-09-09T10:31:18;15;14;
69849;PMS5003;57144;39.652;-75.770;2022-09-09T10:33:50;14;14;
69849;PMS5003;57144;39.652;-75.770;2022-09-09T10:36:19;14;13;
69849;PMS5003;57144;39.652;-75.770;2022-09-09T10:38:52;17;15;
69849;PMS5003;57144;39.652;-75.770;2022-09-09T10:41:19;15;13;
69849;PMS5003;57144;39.652;-75.770;2022-09-09T10:43:55;12;12;
69849;PMS5003;57144;39.652;-75.770;2022-09-09T10:46:23;12;12;
69849;PMS5003;57144;39.652;-75.770;2022-09-09T10:48:56;14;12;
69849;PMS5003;57144;39.652;-75.770;2022-09-09T10:51:23;15;13;
69849;PMS5003;57144;39.652;-75.770;2022-09-09T10:53:56;11;11;
69849;PMS5003;57144;39.652;-75.770;2022-09-09T10:56:23;16;15;
69849;PMS5003;57144;39.652;-75.770;2022-09-09T10:58:55;18;18;
69849;PMS5003;57144;39.652;-75.770;2022-09-09T11:01:25;14;11;
69849;PMS5003;57144;39.652;-75.770;2022-09-09T11:03:56;14;13;
69849;PMS5003;57144;39.652;-75.770;2022-09-09T11:06:28;16;14;
69849;PMS5003;57144;39.652;-75.770;2022-09-09T11:08:57;15;14;
69849;PMS5003;57144;39.652;-75.770;2022-09-09T11:11:28;13;12;
69849;PMS5003;57144;39.652;-75.770;2022-09-09T11:13:59;15;14;
69849;PMS5003;57144;39.652;-75.770;2022-09-09T11:16:28;13;12;
69849;PMS5003;57144;39.652;-75.770;2022-09-09T11:19:00;12;11;
69849;PMS5003;57144;39.652;-75.770;2022-09-09T11:21:31;14;13;
69849;PMS5003;57144;39.652;-75.770;2022-09-09T11:24:00;14;13;
69849;PMS5003;57144;39.652;-75.770;2022-09-09T11:26:31;13;13;
69849;PMS5003;57144;39.652;-75.770;2022-09-09T11:29:06;15;11;
69849;PMS5003;57144;39.652;-75.770;2022-09-09T11:31:36;10;9;
69849;PMS5003;57144;39.652;-75.770;2022-09-09T11:34:07;12;9;
69849;PMS5003;57144;39.652;-75.770;2022-09-09T11:36:37;14;12;
69849;PMS5003;57144;39.652;-75.770;2022-09-09T11:39:07;8;8;
69849;PMS5003;57144;39.652;-75.770;2022-09-09T11:41:34;9;9;
69849;PMS5003;57144;39.652;-75.770;2022-09-09T11:46:36;8;8;
69849;PMS5003;57144;39.652;-75.770;2022-09-09T11:49:06;7;7;
69849;PMS5003;57144;39.652;-75.770;2022-09-09T11:51:36;8;7;
69849;PMS5003;57144;39.652;-75.770;2022-09-09T11:56:42;9;9;
69849;PMS5003;57144;39.652;-75.770;2022-09-09T12:01:39;10;9;
69849;PMS5003;57144;39.652;-75.770;2022-09-09T12:06:44;9;8;
69849;PMS5003;57144;39.652;-75.770;2022-09-09T12:09:15;7;7;
69849;PMS5003;57144;39.652;-75.770;2022-09-09T12:11:41;11;10;
69849;PMS5003;57144;39.652;-75.770;2022-09-09T12:16:43;8;6;
69849;PMS5003;57144;39.652;-75.770;2022-09-09T12:19:14;10;10;
69849;PMS5003;57144;39.652;-75.770;2022-09-09T12:21:45;8;7;
69849;PMS5003;57144;39.652;-75.770;2022-09-09T12:24:15;10;9;
69849;PMS5003;57144;39.652;-75.770;2022-09-09T12:26:46;8;7;
69849;PMS5003;57144;39.652;-75.770;2022-09-09T12:29:19;11;8;
69849;PMS5003;57144;39.652;-75.770;2022-09-09T12:31:46;12;10;
69849;PMS5003;57144;39.652;-75.770;2022-09-09T12:34:17;8;7;
69849;PMS5003;57144;39.652;-75.770;2022-09-09T12:36:48;11;10;
69849;PMS5003;57144;39.652;-75.770;2022-09-09T12:39:19;13;10;
69849;PMS5003;57144;39.652;-75.770;2022-09-09T12:41:51;12;11;
69849;PMS5003;57144;39.652;-75.770;2022-09-09T12:44:18;11;10;
69849;PMS5003;57144;39.652;-75.770;2022-09-09T12:46:50;11;9;
69849;PMS5003;57144;39.652;-75.770;2022-09-09T12:49:24;9;9;
69849;PMS5003;57144;39.652;-75.770;2022-09-09T12:51:50;11;9;
69849;PMS5003;57144;39.652;-75.770;2022-09-09T12:54:21;15;12;
69849;PMS5003;57144;39.652;-75.770;2022-09-09T12:56:51;17;12;
69849;PMS5003;57144;39.652;-75.770;2022-09-09T12:59:23;11;10;
69849;PMS5003;57144;39.652;-75.770;2022-09-09T13:01:56;11;10;
69849;PMS5003;57144;39.652;-75.770;2022-09-09T13:04:23;13;11;
69849;PMS5003;57144;39.652;-75.770;2022-09-09T13:06:54;13;10;
69849;PMS5003;57144;39.652;-75.770;2022-09-09T13:09:24;9;7;
69849;PMS5003;57144;39.652;-75.770;2022-09-09T13:11:55;11;10;
69849;PMS5003;57144;39.652;-75.770;2022-09-09T13:14:27;10;8;
69849;PMS5003;57144;39.652;-75.770;2022-09-09T13:16:57;7;6;
69849;PMS5003;57144;39.652;-75.770;2022-09-09T13:19:27;7;7;
69849;PMS5003;57144;39.652;-75.770;2022-09-09T13:21:57;8;7;
69849;PMS5003;57144;39.652;-75.770;2022-09-09T13:24:29;7;7;
69849;PMS5003;57144;39.652;-75.770;2022-09-09T13:26:59;7;7;
69849;PMS5003;57144;39.652;-75.770;2022-09-09T13:29:29;6;5;
69849;PMS5003;57144;39.652;-75.770;2022-09-09T13:32:03;4;3;
69849;PMS5003;57144;39.652;-75.770;2022-09-09T13:34:31;3;3;
69849;PMS5003;57144;39.652;-75.770;2022-09-09T13:37:01;4;4;
69849;PMS5003;57144;39.652;-75.770;2022-09-09T13:39:32;4;4;
69849;PMS5003;57144;39.652;-75.770;2022-09-09T13:42:02;3;2;
69849;PMS5003;57144;39.652;-75.770;2022-09-09T13:44:33;3;3;
69849;PMS5003;57144;39.652;-75.770;2022-09-09T13:47:04;3;2;
69849;PMS5003;57144;39.652;-75.770;2022-09-09T13:49:34;2;2;
69849;PMS5003;57144;39.652;-75.770;2022-09-09T13:52:05;4;4;
69849;PMS5003;57144;39.652;-75.770;2022-09-09T13:54:35;3;3;
69849;PMS5003;57144;39.652;-75.770;2022-09-09T13:57:11;1;1;
69849;PMS5003;57144;39.652;-75.770;2022-09-09T13:59:36;2;2;
69849;PMS5003;57144;39.652;-75.770;2022-09-09T14:02:07;3;2;
69849;PMS5003;57144;39.652;-75.770;2022-09-09T14:04:37;2;2;
69849;PMS5003;57144;39.652;-75.770;2022-09-09T14:07:09;2;1;
69849;PMS5003;57144;39.652;-75.770;2022-09-09T14:09:38;2;2;
69849;PMS5003;57144;39.652;-75.770;2022-09-09T14:12:09;1;1;
69849;PMS5003;57144;39.652;-75.770;2022-09-09T14:14:40;3;2;
69849;PMS5003;57144;39.652;-75.770;2022-09-09T14:17:10;1;1;
69849;PMS5003;57144;39.652;-75.770;2022-09-09T14:19:41;2;2;
69849;PMS5003;57144;39.652;-75.770;2022-09-09T14:22:11;2;1;
69849;PMS5003;57144;39.652;-75.770;2022-09-09T14:24:42;3;3;
69849;PMS5003;57144;39.652;-75.770;2022-09-09T14:27:12;2;2;
69849;PMS5003;57144;39.652;-75.770;2022-09-09T14:29:43;3;2;
69849;PMS5003;57144;39.652;-75.770;2022-09-09T14:32:14;2;2;
69849;PMS5003;57144;39.652;-75.770;2022-09-09T14:34:44;3;2;
69849;PMS5003;57144;39.652;-75.770;2022-09-09T14:37:15;3;3;
69849;PMS5003;57144;39.652;-75.770;2022-09-09T14:39:45;3;3;
69849;PMS5003;57144;39.652;-75.770;2022-09-09T14:42:16;4;4;
69849;PMS5003;57144;39.652;-75.770;2022-09-09T14:44:46;3;3;
69849;PMS5003;57144;39.652;-75.770;2022-09-09T14:47:17;3;3;
69849;PMS5003;57144;39.652;-75.770;2022-09-09T14:49:48;3;3;
69849;PMS5003;57144;39.652;-75.770;2022-09-09T14:52:18;3;3;
69849;PMS5003;57144;39.652;-75.770;2022-09-09T14:54:49;3;3;
69849;PMS5003;57144;39.652;-75.770;2022-09-09T14:57:20;3;2;
69849;PMS5003;57144;39.652;-75.770;2022-09-09T14:59:50;3;3;
69849;PMS5003;57144;39.652;-75.770;2022-09-09T15:02:21;2;2;
69849;PMS5003;57144;39.652;-75.770;2022-09-09T15:04:52;3;3;
69849;PMS5003;57144;39.652;-75.770;2022-09-09T15:07:22;3;2;
69849;PMS5003;57144;39.652;-75.770;2022-09-09T15:09:53;2;2;
69849;PMS5003;57144;39.652;-75.770;2022-09-09T15:12:24;2;1;
69849;PMS5003;57144;39.652;-75.770;2022-09-09T15:14:54;2;2;
69849;PMS5003;57144;39.652;-75.770;2022-09-09T15:17:25;2;2;
69849;PMS5003;57144;39.652;-75.770;2022-09-09T15:19:55;3;3;
69849;PMS5003;57144;39.652;-75.770;2022-09-09T15:22:26;3;3;
69849;PMS5003;57144;39.652;-75.770;2022-09-09T15:24:57;2;2;
69849;PMS5003;57144;39.652;-75.770;2022-09-09T15:27:27;3;3;
69849;PMS5003;57144;39.652;-75.770;2022-09-09T15:29:58;1;1;
69849;PMS5003;57144;39.652;-75.770;2022-09-09T15:32:29;4;3;
69849;PMS5003;57144;39.652;-75.770;2022-09-09T15:34:59;2;2;
69849;PMS5003;57144;39.652;-75.770;2022-09-09T15:37:30;3;3;
69849;PMS5003;57144;39.652;-75.770;2022-09-09T15:40:01;3;2;
69849;PMS5003;57144;39.652;-75.770;2022-09-09T15:42:31;2;2;
69849;PMS5003;57144;39.652;-75.770;2022-09-09T15:45:02;2;2;
69849;PMS5003;57144;39.652;-75.770;2022-09-09T15:47:33;3;2;
69849;PMS5003;57144;39.652;-75.770;2022-09-09T15:50:03;1;1;
69849;PMS5003;57144;39.652;-75.770;2022-09-09T15:52:34;3;3;
69849;PMS5003;57144;39.652;-75.770;2022-09-09T15:55:05;2;2;
69849;PMS5003;57144;39.652;-75.770;2022-09-09T15:57:35;2;2;
69849;PMS5003;57144;39.652;-75.770;2022-09-09T16:00:06;1;0;
69849;PMS5003;57144;39.652;-75.770;2022-09-09T16:02:36;3;3;
69849;PMS5003;57144;39.652;-75.770;2022-09-09T16:05:07;2;1;
69849;PMS5003;57144;39.652;-75.770;2022-09-09T16:07:37;1;1;
69849;PMS5003;57144;39.652;-75.770;2022-09-09T16:10:08;2;1;
69849;PMS5003;57144;39.652;-75.770;2022-09-09T16:12:39;1;1;
69849;PMS5003;57144;39.652;-75.770;2022-09-09T16:15:09;2;2;
69849;PMS5003;57144;39.652;-75.770;2022-09-09T16:17:40;2;1;
69849;PMS5003;57144;39.652;-75.770;2022-09-09T16:20:10;1;1;
69849;PMS5003;57144;39.652;-75.770;2022-09-09T16:22:41;2;1;
69849;PMS5003;57144;39.652;-75.770;2022-09-09T16:25:12;1;1;
69849;PMS5003;57144;39.652;-75.770;2022-09-09T16:27:42;3;3;
69849;PMS5003;57144;39.652;-75.770;2022-09-09T16:30:13;1;1;
69849;PMS5003;57144;39.652;-75.770;2022-09-09T16:32:44;2;2;
69849;PMS5003;57144;39.652;-75.770;2022-09-09T16:35:15;1;1;
69849;PMS5003;57144;39.652;-75.770;2022-09-09T16:37:45;4;3;
69849;PMS5003;57144;39.652;-75.770;2022-09-09T16:40:16;2;2;
69849;PMS5003;57144;39.652;-75.770;2022-09-09T16:42:46;0;0;
69849;PMS5003;57144;39.652;-75.770;2022-09-09T16:45:17;1;0;
69849;PMS5003;57144;39.652;-75.770;2022-09-09T16:47:48;1;1;
69849;PMS5003;57144;39.652;-75.770;2022-09-09T16:50:18;0;0;
69849;PMS5003;57144;39.652;-75.770;2022-09-09T16:52:49;0;0;
69849;PMS5003;57144;39.652;-75.770;2022-09-09T16:55:19;1;0;
69849;PMS5003;57144;39.652;-75.770;2022-09-09T16:57:50;1;1;
69849;PMS5003;57144;39.652;-75.770;2022-09-09T17:00:21;0;0;
69849;PMS5003;57144;39.652;-75.770;2022-09-09T17:02:51;1;1;
69849;PMS5003;57144;39.652;-75.770;2022-09-09T17:05:22;0;0;
69849;PMS5003;57144;39.652;-75.770;2022-09-09T17:07:53;1;0;
69849;PMS5003;57144;39.652;-75.770;2022-09-09T17:10:23;1;1;
69849;PMS5003;57144;39.652;-75.770;2022-09-09T17:12:54;1;0;
69849;PMS5003;57144;39.652;-75.770;2022-09-09T17:15:25;1;1;
69849;PMS5003;57144;39.652;-75.770;2022-09-09T17:17:56;2;1;
69849;PMS5003;57144;39.652;-75.770;2022-09-09T17:20:26;0;0;
69849;PMS5003;57144;39.652;-75.770;2022-09-09T17:22:57;2;2;
69849;PMS5003;57144;39.652;-75.770;2022-09-09T17:25:27;1;0;
69849;PMS5003;57144;39.652;-75.770;2022-09-09T17:27:58;2;1;
69849;PMS5003;57144;39.652;-75.770;2022-09-09T17:30:29;2;2;
69849;PMS5003;57144;39.652;-75.770;2022-09-09T17:33:00;2;0;
69849;PMS5003;57144;39.652;-75.770;2022-09-09T17:35:30;1;1;
69849;PMS5003;57144;39.652;-75.770;2022-09-09T17:38:01;0;0;
69849;PMS5003;57144;39.652;-75.770;2022-09-09T17:40:31;2;2;
69849;PMS5003;57144;39.652;-75.770;2022-09-09T17:43:02;0;0;
69849;PMS5003;57144;39.652;-75.770;2022-09-09T17:45:33;0;0;
69849;PMS5003;57144;39.652;-75.770;2022-09-09T17:48:04;0;0;
69849;PMS5003;57144;39.652;-75.770;2022-09-09T17:50:34;1;1;
69849;PMS5003;57144;39.652;-75.770;2022-09-09T17:53:05;0;0;
69849;PMS5003;57144;39.652;-75.770;2022-09-09T17:55:35;0;0;
69849;PMS5003;57144;39.652;-75.770;2022-09-09T17:58:06;2;0;
69849;PMS5003;57144;39.652;-75.770;2022-09-09T18:00:37;0;0;
69849;PMS5003;57144;39.652;-75.770;2022-09-09T18:03:07;1;0;
69849;PMS5003;57144;39.652;-75.770;2022-09-09T18:07:26;0;0;
69849;PMS5003;57144;39.652;-75.770;2022-09-09T18:10:02;1;1;
69849;PMS5003;57144;39.652;-75.770;2022-09-09T18:12:28;1;1;
69849;PMS5003;57144;39.652;-75.770;2022-09-09T18:14:58;0;0;
69849;PMS5003;57144;39.652;-75.770;2022-09-09T18:17:29;2;2;
69849;PMS5003;57144;39.652;-75.770;2022-09-09T18:19:59;1;1;
69849;PMS5003;57144;39.652;-75.770;2022-09-09T18:22:30;1;1;
69849;PMS5003;57144;39.652;-75.770;2022-09-09T18:25:00;1;1;
69849;PMS5003;57144;39.652;-75.770;2022-09-09T18:27:31;1;1;
69849;PMS5003;57144;39.652;-75.770;2022-09-09T18:30:02;2;2;
69849;PMS5003;57144;39.652;-75.770;2022-09-09T18:32:32;1;1;
69849;PMS5003;57144;39.652;-75.770;2022-09-09T18:35:03;2;1;
69849;PMS5003;57144;39.652;-75.770;2022-09-09T18:37:34;2;1;
69849;PMS5003;57144;39.652;-75.770;2022-09-09T18:40:05;1;1;
69849;PMS5003;57144;39.652;-75.770;2022-09-09T18:42:35;1;1;
69849;PMS5003;57144;39.652;-75.770;2022-09-09T18:45:06;1;1;
69849;PMS5003;57144;39.652;-75.770;2022-09-09T18:47:36;2;2;
69849;PMS5003;57144;39.652;-75.770;2022-09-09T18:50:07;1;1;
69849;PMS5003;57144;39.652;-75.770;2022-09-09T18:52:37;2;0;
69849;PMS5003;57144;39.652;-75.770;2022-09-09T18:55:08;1;1;
69849;PMS5003;57144;39.652;-75.770;2022-09-09T18:57:39;1;1;
69849;PMS5003;57144;39.652;-75.770;2022-09-09T19:00:10;2;1;
69849;PMS5003;57144;39.652;-75.770;2022-09-09T19:02:40;2;1;
69849;PMS5003;57144;39.652;-75.770;2022-09-09T19:05:10;0;0;
69849;PMS5003;57144;39.652;-75.770;2022-09-09T19:07:41;1;1;
69849;PMS5003;57144;39.652;-75.770;2022-09-09T19:10:12;1;1;
69849;PMS5003;57144;39.652;-75.770;2022-09-09T19:12:42;2;1;
69849;PMS5003;57144;39.652;-75.770;2022-09-09T19:15:13;1;1;
69849;PMS5003;57144;39.652;-75.770;2022-09-09T19:17:44;1;0;
69849;PMS5003;57144;39.652;-75.770;2022-09-09T19:20:14;1;1;
69849;PMS5003;57144;39.652;-75.770;2022-09-09T19:22:47;0;0;
69849;PMS5003;57144;39.652;-75.770;2022-09-09T19:25:15;0;0;
69849;PMS5003;57144;39.652;-75.770;2022-09-09T19:27:46;1;0;
69849;PMS5003;57144;39.652;-75.770;2022-09-09T19:30:17;1;1;
69849;PMS5003;57144;39.652;-75.770;2022-09-09T19:32:47;3;3;
69849;PMS5003;57144;39.652;-75.770;2022-09-09T19:35:18;2;2;
69849;PMS5003;57144;39.652;-75.770;2022-09-09T19:37:49;2;2;
69849;PMS5003;57144;39.652;-75.770;2022-09-09T19:40:19;2;2;
69849;PMS5003;57144;39.652;-75.770;2022-09-09T19:42:50;3;2;
69849;PMS5003;57144;39.652;-75.770;2022-09-09T19:45:21;4;3;
69849;PMS5003;57144;39.652;-75.770;2022-09-09T19:47:51;2;2;
69849;PMS5003;57144;39.652;-75.770;2022-09-09T19:50:22;3;3;
69849;PMS5003;57144;39.652;-75.770;2022-09-09T19:52:53;3;3;
69849;PMS5003;57144;39.652;-75.770;2022-09-09T19:55:23;2;2;
69849;PMS5003;57144;39.652;-75.770;2022-09-09T19:57:54;3;2;
69849;PMS5003;57144;39.652;-75.770;2022-09-09T20:00:24;2;2;
69849;PMS5003;57144;39.652;-75.770;2022-09-09T20:02:55;1;1;
69849;PMS5003;57144;39.652;-75.770;2022-09-09T20:05:26;3;3;
69849;PMS5003;57144;39.652;-75.770;2022-09-09T20:07:57;2;2;
69849;PMS5003;57144;39.652;-75.770;2022-09-09T20:10:27;4;4;
69849;PMS5003;57144;39.652;-75.770;2022-09-09T20:12:58;2;2;
69849;PMS5003;57144;39.652;-75.770;2022-09-09T20:15:28;2;2;
69849;PMS5003;57144;39.652;-75.770;2022-09-09T20:17:59;3;3;
69849;PMS5003;57144;39.652;-75.770;2022-09-09T20:20:30;2;2;
69849;PMS5003;57144;39.652;-75.770;2022-09-09T20:23:00;2;1;
69849;PMS5003;57144;39.652;-75.770;2022-09-09T20:25:34;3;3;
69849;PMS5003;57144;39.652;-75.770;2022-09-09T20:28:02;2;2;
69849;PMS5003;57144;39.652;-75.770;2022-09-09T20:30:32;2;2;
69849;PMS5003;57144;39.652;-75.770;2022-09-09T20:33:03;3;3;
69849;PMS5003;57144;39.652;-75.770;2022-09-09T20:35:34;3;3;
69849;PMS5003;57144;39.652;-75.770;2022-09-09T20:38:04;1;1;
69849;PMS5003;57144;39.652;-75.770;2022-09-09T20:40:35;2;2;
69849;PMS5003;57144;39.652;-75.770;2022-09-09T20:43:06;2;2;
69849;PMS5003;57144;39.652;-75.770;2022-09-09T20:45:36;2;2;
69849;PMS5003;57144;39.652;-75.770;2022-09-09T20:48:07;2;2;
69849;PMS5003;57144;39.652;-75.770;2022-09-09T20:50:38;2;1;
69849;PMS5003;57144;39.652;-75.770;2022-09-09T20:53:08;1;1;
69849;PMS5003;57144;39.652;-75.770;2022-09-09T20:55:39;2;2;
69849;PMS5003;57144;39.652;-75.770;2022-09-09T20:58:10;3;3;
69849;PMS5003;57144;39.652;-75.770;2022-09-09T21:00:40;1;1;
69849;PMS5003;57144;39.652;-75.770;2022-09-09T21:03:11;2;2;
69849;PMS5003;57144;39.652;-75.770;2022-09-09T21:05:42;3;2;
69849;PMS5003;57144;39.652;-75.770;2022-09-09T21:08:12;3;2;
69849;PMS5003;57144;39.652;-75.770;2022-09-09T21:10:43;2;2;
69849;PMS5003;57144;39.652;-75.770;2022-09-09T21:13:14;2;2;
69849;PMS5003;57144;39.652;-75.770;2022-09-09T21:15:44;2;2;
69849;PMS5003;57144;39.652;-75.770;2022-09-09T21:18:15;2;2;
69849;PMS5003;57144;39.652;-75.770;2022-09-09T21:20:46;3;2;
69849;PMS5003;57144;39.652;-75.770;2022-09-09T21:23:16;1;1;
69849;PMS5003;57144;39.652;-75.770;2022-09-09T21:25:47;0;0;
69849;PMS5003;57144;39.652;-75.770;2022-09-09T21:28:18;0;0;
69849;PMS5003;57144;39.652;-75.770;2022-09-09T21:30:49;1;1;
69849;PMS5003;57144;39.652;-75.770;2022-09-09T21:33:19;2;1;
69849;PMS5003;57144;39.652;-75.770;2022-09-09T21:35:50;2;2;
69849;PMS5003;57144;39.652;-75.770;2022-09-09T21:38:21;1;1;
69849;PMS5003;57144;39.652;-75.770;2022-09-09T21:40:51;2;2;
69849;PMS5003;57144;39.652;-75.770;2022-09-09T21:43:21;1;1;
69849;PMS5003;57144;39.652;-75.770;2022-09-09T21:45:52;1;1;
69849;PMS5003;57144;39.652;-75.770;2022-09-09T21:48:23;2;2;
69849;PMS5003;57144;39.652;-75.770;2022-09-09T21:50:54;1;1;
69849;PMS5003;57144;39.652;-75.770;2022-09-09T21:53:24;2;1;
69849;PMS5003;57144;39.652;-75.770;2022-09-09T21:55:59;2;2;
69849;PMS5003;57144;39.652;-75.770;2022-09-09T21:58:25;2;0;
69849;PMS5003;57144;39.652;-75.770;2022-09-09T22:00:56;2;0;
69849;PMS5003;57144;39.652;-75.770;2022-09-09T22:03:27;1;1;
69849;PMS5003;57144;39.652;-75.770;2022-09-09T22:05:57;1;1;
69849;PMS5003;57144;39.652;-75.770;2022-09-09T22:08:28;2;2;
69849;PMS5003;57144;39.652;-75.770;2022-09-09T22:13:29;0;0;
69849;PMS5003;57144;39.652;-75.770;2022-09-09T22:16:00;0;0;
69849;PMS5003;57144;39.652;-75.770;2022-09-09T22:18:31;4;3;
69849;PMS5003;57144;39.652;-75.770;2022-09-09T22:21:04;2;1;
69849;PMS5003;57144;39.652;-75.770;2022-09-09T22:23:32;1;1;
69849;PMS5003;57144;39.652;-75.770;2022-09-09T22:26:04;1;0;
69849;PMS5003;57144;39.652;-75.770;2022-09-09T22:28:33;1;1;
69849;PMS5003;57144;39.652;-75.770;2022-09-09T22:31:04;3;2;
69849;PMS5003;57144;39.652;-75.770;2022-09-09T22:33:34;1;1;
69849;PMS5003;57144;39.652;-75.770;2022-09-09T22:36:05;2;2;
69849;PMS5003;57144;39.652;-75.770;2022-09-09T22:38:36;2;2;
69849;PMS5003;57144;39.652;-75.770;2022-09-09T22:41:07;1;1;
69849;PMS5003;57144;39.652;-75.770;2022-09-09T22:43:37;2;1;
69849;PMS5003;57144;39.652;-75.770;2022-09-09T22:46:08;3;3;